Boone, Iowa
Current Conditions -  °F | °C
As of 3:15 AM on Monday 29 Dec 2014 (Local Time) from KBNW Reporting Station
Haze Haze  
Wind Chill: 13°   Ceiling: 2600
Heat Index: 23°   Visibility: 6mi
Dew Point: 21°   Wind: 9mph
Humidity: 93%   Direction: 40°NE
Pressure: 30.26"   Gusts: NA
Location:  42.06°N, 93.9°W
Report Text: KBNW 290915Z AUTO 04008KT 6SM BR SCT019 BKN026 OVC043 M05/M06 A3026 RMK AO2
Loading
Personal Weather Stations






























Interactive Weather Map New forecast layout! Learn more

10-Day Weather Forecast

Advertisements
Track Severe Weather on mobile